Time;durP1;ratioP1;P1;durP2;ratioP2;P2;SDS_P1;SDS_P2;PMS_P1;PMS_P2;Temp;Humidity;BMP_temperature;BMP_pressure;BME280_temperature;BME280_humidity;BME280_pressure;Samples;Min_cycle;Max_cycle;Signal;HPM_P1;HPM_P2
2021/09/26 00:01:38;;;;;;;8.48;6.80;;;23.00;70.20;;;;;;5212430;28;20060;-46
2021/09/26 00:04:11;;;;;;;12.75;7.22;;;23.10;69.60;;;;;;5220391;28;20554;-47
2021/09/26 00:06:43;;;;;;;11.67;6.73;;;23.10;69.70;;;;;;5221540;28;20790;-52
2021/09/26 00:09:16;;;;;;;8.88;6.55;;;23.00;69.60;;;;;;5220358;28;20052;-48
2021/09/26 00:11:48;;;;;;;9.50;6.97;;;23.00;69.60;;;;;;5224298;28;20064;-47
2021/09/26 00:14:21;;;;;;;9.27;6.57;;;23.00;69.70;;;;;;5222498;28;20833;-49
2021/09/26 00:16:57;;;;;;;10.68;7.03;;;23.00;69.70;;;;;;5216759;28;20446;-51
2021/09/26 00:19:30;;;;;;;10.05;7.13;;;23.00;69.80;;;;;;5222618;28;20393;-48
2021/09/26 00:22:03;;;;;;;9.45;6.55;;;23.00;69.80;;;;;;5219190;28;20053;-46
2021/09/26 00:24:54;;;;;;;8.32;6.55;;;23.00;69.80;;;;;;5216360;28;20508;-51
2021/09/26 00:27:27;;;;;;;8.50;6.68;;;23.00;69.80;;;;;;5212097;28;20063;-45
2021/09/26 00:29:59;;;;;;;8.77;6.63;;;23.00;69.80;;;;;;5197576;28;20056;-48
2021/09/26 00:32:32;;;;;;;9.60;6.75;;;23.00;69.80;;;;;;5230468;28;20044;-53
2021/09/26 00:35:04;;;;;;;8.55;6.47;;;23.00;69.80;;;;;;5219967;28;20041;-51
2021/09/26 00:37:38;;;;;;;7.55;6.38;;;23.00;69.80;;;;;;5187405;28;20060;-45
2021/09/26 00:40:11;;;;;;;8.32;6.15;;;23.00;69.80;;;;;;5204234;28;20556;-49
2021/09/26 00:42:43;;;;;;;7.97;6.28;;;23.00;69.90;;;;;;5230435;28;20045;-45
2021/09/26 00:45:16;;;;;;;10.25;6.80;;;23.00;69.90;;;;;;5220317;28;20055;-47
2021/09/26 00:47:49;;;;;;;8.63;6.50;;;22.90;69.80;;;;;;5219488;28;20044;-45
2021/09/26 00:50:22;;;;;;;7.70;6.63;;;23.00;70.00;;;;;;5225853;28;20409;-45
2021/09/26 00:52:54;;;;;;;7.05;5.50;;;23.00;70.00;;;;;;5223664;28;20032;-49
2021/09/26 00:55:28;;;;;;;8.80;6.35;;;22.90;70.00;;;;;;5233752;28;20044;-45
2021/09/26 00:58:00;;;;;;;8.93;5.75;;;22.90;70.00;;;;;;5183430;28;20040;-51
2021/09/26 01:00:33;;;;;;;11.05;6.40;;;22.90;70.00;;;;;;5235131;28;20052;-51
2021/09/26 01:03:05;;;;;;;7.97;5.97;;;22.90;70.00;;;;;;5230187;28;20408;-48
2021/09/26 01:05:38;;;;;;;7.85;5.57;;;22.90;70.10;;;;;;5226121;28;20048;-45
2021/09/26 01:08:24;;;;;;;6.87;5.67;;;22.90;70.20;;;;;;5216823;28;20523;-50
2021/09/26 01:11:15;;;;;;;10.27;6.00;;;22.90;70.10;;;;;;5222399;28;20037;-47
2021/09/26 01:14:20;;;;;;;6.80;5.53;;;22.90;70.10;;;;;;5228422;28;20048;-48
2021/09/26 01:17:07;;;;;;;7.95;5.50;;;22.90;70.10;;;;;;5200546;28;20040;-51
2021/09/26 01:19:54;;;;;;;7.13;6.05;;;22.90;70.20;;;;;;5225774;28;20051;-46
2021/09/26 01:22:51;;;;;;;11.25;6.18;;;22.90;70.20;;;;;;5228600;28;20067;-45
2021/09/26 01:25:55;;;;;;;7.20;5.57;;;22.80;70.20;;;;;;5213746;28;20059;-48
2021/09/26 01:29:13;;;;;;;7.25;5.72;;;22.90;70.20;;;;;;5218689;28;20040;-48
2021/09/26 01:31:50;;;;;;;7.43;5.32;;;22.90;70.30;;;;;;5209836;28;20520;-46
2021/09/26 01:34:47;;;;;;;6.97;5.30;;;22.80;70.30;;;;;;5219270;28;20497;-50
2021/09/26 01:37:45;;;;;;;9.05;5.40;;;22.80;70.20;;;;;;5226161;28;20052;-45
2021/09/26 01:40:32;;;;;;;9.07;5.95;;;22.80;70.30;;;;;;5224002;28;20044;-48
2021/09/26 01:43:09;;;;;;;9.02;5.53;;;22.80;70.30;;;;;;5227777;28;20052;-48
2021/09/26 01:45:57;;;;;;;7.57;5.53;;;22.80;70.40;;;;;;5206870;28;20040;-50
2021/09/26 01:48:36;;;;;;;12.52;5.45;;;22.80;70.30;;;;;;5197306;28;20064;-51
2021/09/26 01:51:10;;;;;;;6.63;4.97;;;22.80;70.40;;;;;;5220885;28;20385;-46
2021/09/26 01:53:44;;;;;;;6.55;5.38;;;22.80;70.40;;;;;;5227553;28;20044;-50
2021/09/26 01:56:17;;;;;;;7.35;5.40;;;22.80;70.40;;;;;;5218090;28;20049;-48
2021/09/26 01:58:50;;;;;;;7.57;4.90;;;22.80;70.40;;;;;;5200000;28;20060;-46
2021/09/26 02:01:23;;;;;;;9.30;5.15;;;22.80;70.40;;;;;;5229758;28;20044;-48
2021/09/26 02:03:57;;;;;;;6.57;5.00;;;22.80;70.70;;;;;;5219017;28;20052;-52
2021/09/26 02:06:29;;;;;;;;;;;22.80;70.50;;;;;;5215122;28;21238;-49
2021/09/26 02:09:03;;;;;;;7.70;4.78;;;22.70;70.50;;;;;;5201253;28;19931;-48
2021/09/26 02:11:36;;;;;;;6.72;4.63;;;22.80;70.60;;;;;;5225357;28;20408;-50
2021/09/26 02:14:09;;;;;;;6.90;5.07;;;22.80;70.60;;;;;;5215796;28;20041;-51
2021/09/26 02:16:42;;;;;;;7.05;5.60;;;22.80;70.60;;;;;;5218087;28;20519;-47
2021/09/26 02:19:16;;;;;;;6.65;4.75;;;22.80;70.50;;;;;;5217662;28;20052;-51
2021/09/26 02:21:50;;;;;;;8.15;5.45;;;22.80;70.60;;;;;;5219928;28;20527;-49
2021/09/26 02:24:23;;;;;;;8.98;5.30;;;22.80;70.60;;;;;;5218416;28;20075;-45
2021/09/26 02:26:55;;;;;;;7.50;4.78;;;22.80;70.60;;;;;;5225645;28;20041;-45
2021/09/26 02:29:28;;;;;;;6.93;5.22;;;22.70;70.60;;;;;;5212878;28;20914;-47
2021/09/26 02:32:01;;;;;;;5.63;4.50;;;22.80;70.60;;;;;;5222845;28;20037;-48
2021/09/26 02:34:33;;;;;;;6.75;5.18;;;22.80;70.60;;;;;;5221725;28;20424;-47
2021/09/26 02:37:05;;;;;;;6.57;5.10;;;22.80;70.70;;;;;;5225237;28;20047;-46
2021/09/26 02:39:38;;;;;;;7.82;5.20;;;22.80;70.60;;;;;;5225840;28;20045;-49
2021/09/26 02:42:19;;;;;;;8.17;5.77;;;22.70;70.60;;;;;;5231474;28;20052;-56
2021/09/26 02:45:06;;;;;;;6.18;4.32;;;22.70;70.60;;;;;;5207353;28;20052;-47
2021/09/26 02:48:10;;;;;;;6.22;4.45;;;22.80;70.60;;;;;;5220808;28;20048;-49
2021/09/26 02:50:46;;;;;;;7.00;5.00;;;22.80;70.70;;;;;;5226921;28;20437;-53
2021/09/26 02:53:19;;;;;;;6.32;5.05;;;22.80;70.70;;;;;;5224286;28;20055;-48
2021/09/26 02:55:53;;;;;;;6.32;4.45;;;22.70;70.70;;;;;;5228441;28;20425;-54
2021/09/26 02:58:26;;;;;;;9.35;5.22;;;22.70;70.70;;;;;;5222448;28;20899;-47
2021/09/26 03:00:58;;;;;;;9.30;5.18;;;22.70;70.70;;;;;;5210312;28;20048;-49
2021/09/26 03:03:31;;;;;;;7.37;5.23;;;22.70;70.70;;;;;;5220837;28;20036;-55
2021/09/26 03:06:04;;;;;;;12.07;4.60;;;22.70;70.70;;;;;;5218540;28;20287;-46
2021/09/26 03:08:36;;;;;;;5.32;4.40;;;22.70;70.80;;;;;;5218024;28;20143;-50
2021/09/26 03:11:09;;;;;;;8.15;5.55;;;22.70;70.80;;;;;;5221642;28;20528;-51
2021/09/26 03:13:41;;;;;;;7.50;5.28;;;22.70;70.70;;;;;;5222648;28;20044;-47
2021/09/26 03:16:13;;;;;;;6.55;4.47;;;22.70;71.40;;;;;;5225575;28;20544;-47
2021/09/26 03:18:46;;;;;;;7.45;5.07;;;22.70;70.70;;;;;;5218290;28;20520;-47
2021/09/26 03:21:18;;;;;;;6.30;4.80;;;22.70;70.70;;;;;;5204066;28;20050;-46
2021/09/26 03:23:51;;;;;;;6.55;5.00;;;22.70;70.60;;;;;;5202256;28;20040;-53
2021/09/26 03:26:24;;;;;;;5.65;4.32;;;22.70;70.60;;;;;;5201041;28;20669;-46
2021/09/26 03:28:56;;;;;;;7.45;5.20;;;22.70;70.60;;;;;;5225777;28;20051;-52
2021/09/26 03:31:29;;;;;;;7.50;4.68;;;22.70;70.60;;;;;;5209293;28;21364;-45
2021/09/26 03:34:01;;;;;;;6.43;4.50;;;22.60;70.50;;;;;;5225295;28;20048;-47
2021/09/26 03:36:34;;;;;;;11.40;4.47;;;22.70;70.60;;;;;;5223251;28;20493;-49
2021/09/26 03:39:06;;;;;;;6.00;4.72;;;22.60;70.40;;;;;;5210037;28;20073;-46
2021/09/26 03:41:38;;;;;;;7.93;4.30;;;22.70;70.50;;;;;;5226509;28;20049;-47
2021/09/26 03:44:11;;;;;;;5.82;4.40;;;22.70;70.40;;;;;;5206341;28;20053;-48
2021/09/26 03:46:44;;;;;;;5.95;4.22;;;22.70;70.50;;;;;;5209853;28;20122;-46
2021/09/26 03:49:18;;;;;;;6.85;4.63;;;22.60;70.30;;;;;;5229104;28;20055;-50
2021/09/26 03:51:53;;;;;;;9.15;4.40;;;22.60;70.30;;;;;;5224504;28;20085;-47
2021/09/26 03:54:26;;;;;;;6.15;4.43;;;22.60;70.30;;;;;;5225292;28;20405;-47
2021/09/26 03:56:58;;;;;;;5.80;4.25;;;22.60;70.30;;;;;;5204029;28;20626;-50
2021/09/26 03:59:31;;;;;;;7.32;4.68;;;22.60;70.20;;;;;;5215013;28;20059;-50
2021/09/26 04:02:04;;;;;;;5.93;4.78;;;22.60;70.30;;;;;;5190108;28;20052;-50
2021/09/26 04:04:37;;;;;;;4.65;4.20;;;22.60;70.30;;;;;;5214563;28;20048;-50
2021/09/26 04:07:09;;;;;;;8.07;4.50;;;22.60;70.40;;;;;;5221418;28;20052;-49
2021/09/26 04:09:42;;;;;;;6.40;4.70;;;22.60;70.40;;;;;;5226220;28;21358;-48
2021/09/26 04:12:14;;;;;;;13.15;4.85;;;22.60;70.50;;;;;;5227402;28;20532;-46
2021/09/26 04:14:47;;;;;;;12.07;5.07;;;22.70;70.70;;;;;;5219283;28;20075;-52
2021/09/26 04:17:19;;;;;;;9.60;4.00;;;22.70;70.60;;;;;;5221377;28;20293;-49
2021/09/26 04:19:52;;;;;;;7.03;4.07;;;22.70;70.60;;;;;;5223483;28;20416;-47
2021/09/26 04:22:24;;;;;;;4.82;4.32;;;22.70;70.60;;;;;;5227087;28;20059;-46
2021/09/26 04:24:57;;;;;;;10.02;4.97;;;22.70;70.60;;;;;;5225822;28;20045;-48
2021/09/26 04:27:29;;;;;;;8.35;4.15;;;22.70;70.60;;;;;;5226011;28;20053;-46
2021/09/26 04:30:03;;;;;;;6.28;4.35;;;22.70;70.60;;;;;;5228729;28;20059;-46
2021/09/26 04:32:37;;;;;;;9.50;4.20;;;22.70;70.60;;;;;;5234893;28;20052;-47
2021/09/26 04:35:09;;;;;;;7.55;4.60;;;22.70;70.60;;;;;;5226608;28;20489;-46
2021/09/26 04:37:42;;;;;;;11.20;4.63;;;22.70;70.70;;;;;;5219281;28;20041;-52
2021/09/26 04:40:14;;;;;;;6.45;4.60;;;22.70;70.90;;;;;;5228105;28;20071;-50
2021/09/26 04:42:47;;;;;;;10.85;3.97;;;22.70;70.90;;;;;;5219228;28;20835;-49
2021/09/26 04:45:19;;;;;;;7.35;4.22;;;22.70;70.90;;;;;;5228264;28;20048;-48
2021/09/26 04:47:52;;;;;;;6.87;3.97;;;22.70;70.90;;;;;;5226386;28;20044;-48
2021/09/26 04:50:24;;;;;;;6.68;3.92;;;22.70;71.00;;;;;;5232840;28;20477;-50
2021/09/26 04:52:57;;;;;;;7.27;4.20;;;22.70;70.90;;;;;;5225273;28;20048;-50
2021/09/26 04:55:29;;;;;;;7.15;4.65;;;22.70;70.80;;;;;;5200900;28;20044;-48
2021/09/26 04:58:03;;;;;;;8.88;4.97;;;22.70;70.90;;;;;;5211238;28;20489;-49
2021/09/26 05:00:37;;;;;;;5.30;4.25;;;22.70;70.90;;;;;;5222629;28;20424;-52
2021/09/26 05:03:10;;;;;;;7.45;3.90;;;22.70;70.90;;;;;;5229228;28;20103;-47
2021/09/26 05:05:43;;;;;;;12.95;3.97;;;22.70;70.80;;;;;;5220496;28;20051;-49
2021/09/26 05:08:15;;;;;;;8.15;4.50;;;22.70;70.90;;;;;;5217674;28;20587;-47
2021/09/26 05:10:47;;;;;;;10.10;4.45;;;22.70;71.00;;;;;;5210864;28;20040;-52
2021/09/26 05:13:20;;;;;;;9.93;4.47;;;22.70;71.10;;;;;;5226390;28;20051;-48
2021/09/26 05:15:52;;;;;;;9.45;4.45;;;22.70;71.00;;;;;;5193723;28;20516;-47
2021/09/26 05:18:25;;;;;;;5.78;3.97;;;22.70;71.80;;;;;;5220758;28;20778;-51
2021/09/26 05:20:57;;;;;;;6.45;4.15;;;22.70;71.30;;;;;;5214552;28;20082;-53
2021/09/26 05:23:30;;;;;;;6.80;4.43;;;22.70;71.30;;;;;;5213601;28;20052;-50
2021/09/26 05:26:03;;;;;;;8.00;4.65;;;22.70;71.30;;;;;;5221037;28;20067;-47
2021/09/26 05:28:36;;;;;;;9.45;4.22;;;22.70;71.30;;;;;;5221297;28;20063;-52
2021/09/26 05:31:09;;;;;;;7.35;4.18;;;22.70;71.30;;;;;;5212938;28;20052;-49
2021/09/26 05:33:41;;;;;;;12.63;4.47;;;22.70;71.30;;;;;;5214450;28;20041;-49
2021/09/26 05:36:14;;;;;;;7.15;4.30;;;22.70;71.40;;;;;;5225375;28;20055;-47
2021/09/26 05:38:46;;;;;;;12.25;4.60;;;22.70;71.40;;;;;;5218613;28;20061;-47
2021/09/26 05:41:18;;;;;;;17.63;4.35;;;22.70;71.40;;;;;;5216603;28;20055;-52
2021/09/26 05:43:51;;;;;;;11.50;4.43;;;22.70;71.30;;;;;;5230331;28;20412;-52
2021/09/26 05:46:23;;;;;;;9.93;4.10;;;22.70;71.30;;;;;;5193364;28;20045;-47
2021/09/26 05:48:56;;;;;;;7.88;4.30;;;22.70;71.30;;;;;;5218550;28;20044;-50
2021/09/26 05:51:28;;;;;;;9.95;4.28;;;22.70;71.20;;;;;;5189783;28;20037;-53
2021/09/26 05:54:01;;;;;;;11.32;4.20;;;22.70;71.20;;;;;;5210198;28;20408;-52
2021/09/26 05:56:33;;;;;;;11.55;4.28;;;22.70;71.10;;;;;;5203678;28;20441;-49
2021/09/26 05:59:06;;;;;;;11.63;4.18;;;22.70;71.10;;;;;;5209196;28;20630;-48
2021/09/26 06:01:39;;;;;;;9.33;4.10;;;22.70;71.10;;;;;;5210110;28;20547;-53
2021/09/26 06:04:11;;;;;;;11.27;4.30;;;22.70;71.10;;;;;;5190384;28;21069;-47
2021/09/26 06:06:43;;;;;;;9.88;4.50;;;22.70;71.10;;;;;;5204487;28;20056;-49
2021/09/26 06:09:16;;;;;;;9.35;4.40;;;22.70;71.10;;;;;;5208281;28;20041;-46
2021/09/26 06:11:48;;;;;;;7.35;3.70;;;22.70;71.10;;;;;;5203725;28;20056;-57
2021/09/26 06:14:21;;;;;;;13.05;4.10;;;22.70;71.10;;;;;;5185240;28;20051;-49
2021/09/26 06:16:53;;;;;;;11.77;3.90;;;22.70;71.20;;;;;;5205582;28;20037;-47
2021/09/26 06:19:25;;;;;;;7.20;4.00;;;22.70;71.20;;;;;;5210288;28;20047;-52
2021/09/26 06:21:58;;;;;;;10.13;4.30;;;22.70;71.30;;;;;;5203161;28;20829;-47
2021/09/26 06:24:30;;;;;;;15.02;4.07;;;22.70;71.30;;;;;;5215445;28;20489;-46
2021/09/26 06:27:03;;;;;;;9.07;3.90;;;22.70;71.40;;;;;;5215733;28;20049;-52
2021/09/26 06:29:35;;;;;;;11.93;4.30;;;22.70;71.40;;;;;;5209737;28;20481;-52
2021/09/26 06:32:08;;;;;;;21.25;4.38;;;22.70;71.50;;;;;;5159089;28;20056;-50
2021/09/26 06:34:41;;;;;;;13.00;4.47;;;22.60;71.00;;;;;;5208728;28;20048;-48
2021/09/26 06:37:13;;;;;;;16.35;5.22;;;22.70;71.60;;;;;;5214059;28;20048;-53
2021/09/26 06:39:46;;;;;;;17.50;5.82;;;22.70;71.70;;;;;;5211657;28;20639;-48
2021/09/26 06:42:18;;;;;;;21.05;6.47;;;22.70;71.70;;;;;;5184854;28;20041;-55
2021/09/26 06:44:51;;;;;;;20.92;6.60;;;22.70;71.80;;;;;;5196109;28;20527;-47
2021/09/26 06:47:23;;;;;;;19.00;5.93;;;22.70;71.80;;;;;;5201990;28;20048;-44
2021/09/26 06:49:57;;;;;;;19.23;6.68;;;22.70;71.90;;;;;;5207351;28;20489;-51
2021/09/26 06:52:30;;;;;;;30.90;8.20;;;22.70;72.00;;;;;;5196890;28;20048;-54
2021/09/26 06:55:04;;;;;;;13.98;6.05;;;22.70;72.00;;;;;;5197151;28;20036;-46
2021/09/26 06:57:37;;;;;;;21.50;6.47;;;22.70;72.30;;;;;;5199482;28;20053;-53
2021/09/26 07:00:10;;;;;;;15.18;6.30;;;22.70;72.40;;;;;;5165077;28;20059;-48
2021/09/26 07:02:44;;;;;;;25.95;6.82;;;22.70;72.20;;;;;;5191480;28;20052;-52
2021/09/26 07:05:17;;;;;;;17.63;5.95;;;22.70;72.20;;;;;;5156972;28;20440;-47
2021/09/26 07:07:53;;;;;;;24.83;6.60;;;22.80;72.40;;;;;;5192017;28;20057;-44
2021/09/26 07:10:26;;;;;;;19.75;6.78;;;22.80;72.30;;;;;;5206277;28;20063;-46
2021/09/26 07:12:58;;;;;;;22.02;6.45;;;22.70;72.20;;;;;;5199478;28;20048;-49
2021/09/26 07:15:30;;;;;;;24.45;6.65;;;22.80;72.20;;;;;;5208865;28;20398;-52
2021/09/26 07:18:03;;;;;;;16.65;6.53;;;22.80;72.20;;;;;;5208856;28;20462;-49
2021/09/26 07:20:36;;;;;;;16.60;5.93;;;22.80;72.30;;;;;;5206091;28;20048;-45
2021/09/26 07:23:09;;;;;;;13.85;5.93;;;22.80;72.20;;;;;;5192907;28;20057;-45
2021/09/26 07:25:41;;;;;;;23.25;6.07;;;22.80;72.30;;;;;;5204339;28;20056;-48
2021/09/26 07:28:14;;;;;;;15.70;5.95;;;22.80;72.20;;;;;;5184631;28;20070;-47
2021/09/26 07:30:46;;;;;;;18.35;6.90;;;22.80;72.20;;;;;;5201590;28;20083;-45
2021/09/26 07:33:25;;;;;;;23.02;8.95;;;22.80;72.20;;;;;;5193237;28;21234;-47
2021/09/26 07:35:58;;;;;;;20.13;9.43;;;22.80;72.30;;;;;;5185990;28;20047;-50
2021/09/26 07:38:30;;;;;;;25.77;8.73;;;22.80;72.30;;;;;;5200337;28;20057;-46
2021/09/26 07:41:02;;;;;;;23.50;8.85;;;22.80;72.40;;;;;;5183004;28;20052;-47
2021/09/26 07:43:35;;;;;;;20.90;9.27;;;22.80;72.40;;;;;;5183778;28;20076;-47
2021/09/26 07:46:08;;;;;;;22.63;9.37;;;22.80;72.40;;;;;;5191589;28;20055;-46
2021/09/26 07:48:40;;;;;;;21.63;10.15;;;22.80;72.40;;;;;;5210803;28;20048;-46
2021/09/26 07:51:12;;;;;;;25.17;9.13;;;22.80;72.50;;;;;;5215831;28;20060;-47
2021/09/26 07:53:45;;;;;;;26.25;10.52;;;22.80;72.50;;;;;;5215987;28;20052;-49
2021/09/26 07:56:18;;;;;;;28.08;9.98;;;22.80;72.50;;;;;;5212117;28;20037;-46
2021/09/26 07:58:50;;;;;;;20.90;10.02;;;22.80;72.60;;;;;;5196211;28;20064;-46
2021/09/26 08:01:23;;;;;;;19.70;9.48;;;22.80;72.60;;;;;;5210759;28;20055;-47
2021/09/26 08:03:55;;;;;;;20.58;9.10;;;22.80;72.70;;;;;;5214758;28;20052;-51
2021/09/26 08:06:29;;;;;;;21.13;9.75;;;22.80;72.70;;;;;;5199416;28;20053;-49
2021/09/26 08:09:03;;;;;;;19.20;8.88;;;22.80;72.80;;;;;;5219203;28;20044;-45
2021/09/26 08:11:35;;;;;;;;;;;22.80;72.80;;;;;;5211236;28;25235;-52
2021/09/26 08:14:08;;;;;;;26.70;9.70;;;22.80;72.80;;;;;;5204846;28;20340;-45
2021/09/26 08:16:40;;;;;;;19.08;9.43;;;22.80;72.90;;;;;;5217374;28;20054;-47
2021/09/26 08:19:13;;;;;;;19.65;10.07;;;22.80;72.90;;;;;;5208089;28;20060;-45
2021/09/26 08:21:45;;;;;;;20.23;8.43;;;22.80;72.90;;;;;;5212809;28;20044;-48
2021/09/26 08:24:19;;;;;;;21.30;8.95;;;22.80;72.90;;;;;;5204424;28;20048;-49
2021/09/26 08:26:51;;;;;;;;;;;22.80;72.90;;;;;;5226965;28;20041;-50
2021/09/26 08:29:23;;;;;;;24.67;9.45;;;22.80;73.00;;;;;;5227809;28;19944;-45
2021/09/26 08:31:56;;;;;;;26.30;9.05;;;22.80;73.00;;;;;;5215759;28;20394;-48
2021/09/26 08:34:30;;;;;;;26.88;9.43;;;22.80;72.90;;;;;;5221664;28;20052;-46
2021/09/26 08:37:02;;;;;;;;;;;22.80;72.90;;;;;;5203193;28;20052;-45
2021/09/26 08:39:34;;;;;;;18.88;8.80;;;22.80;73.10;;;;;;5208164;28;19925;-48
2021/09/26 08:42:08;;;;;;;24.77;8.68;;;22.80;72.90;;;;;;5226434;28;20045;-47
2021/09/26 08:44:41;;;;;;;21.67;9.07;;;22.80;73.00;;;;;;5209026;28;20821;-45
2021/09/26 08:47:13;;;;;;;24.00;8.98;;;22.80;73.10;;;;;;5230301;28;20448;-47
2021/09/26 08:49:46;;;;;;;25.75;9.02;;;22.80;73.00;;;;;;5230315;28;20500;-45
2021/09/26 08:52:18;;;;;;;19.60;8.55;;;22.80;73.00;;;;;;5211743;28;20049;-45
2021/09/26 08:54:51;;;;;;;16.90;7.50;;;22.80;72.90;;;;;;5227289;28;20087;-48
2021/09/26 08:57:24;;;;;;;20.07;8.30;;;22.90;72.90;;;;;;5207770;28;20071;-47
2021/09/26 08:59:56;;;;;;;21.65;8.18;;;22.90;72.80;;;;;;5223507;28;20055;-46
2021/09/26 09:02:29;;;;;;;20.52;9.43;;;22.90;72.80;;;;;;5226285;28;20060;-49
2021/09/26 09:05:03;;;;;;;20.73;8.57;;;22.90;72.80;;;;;;5224461;28;20041;-48
2021/09/26 09:07:36;;;;;;;16.85;7.82;;;22.90;72.70;;;;;;5197317;28;20295;-50
2021/09/26 09:10:09;;;;;;;14.00;7.53;;;22.90;72.70;;;;;;5223892;28;20687;-51
2021/09/26 09:12:41;;;;;;;15.80;7.03;;;22.90;72.60;;;;;;5219147;28;20299;-47
2021/09/26 09:15:14;;;;;;;14.02;7.30;;;22.90;72.60;;;;;;5210448;28;20040;-50
2021/09/26 09:17:46;;;;;;;17.05;7.70;;;22.90;72.50;;;;;;5192779;28;20044;-48
2021/09/26 09:20:24;;;;;;;16.20;7.50;;;22.90;72.60;;;;;;5229615;28;20040;-46
2021/09/26 09:23:11;;;;;;;13.10;7.28;;;22.90;72.50;;;;;;5217951;28;20482;-46
2021/09/26 09:25:49;;;;;;;20.10;8.00;;;22.90;72.50;;;;;;5209875;28;20443;-45
2021/09/26 09:28:28;;;;;;;19.70;7.43;;;22.90;72.50;;;;;;5178583;28;20053;-46
2021/09/26 09:31:03;;;;;;;19.73;7.72;;;22.90;72.50;;;;;;5220926;28;20093;-50
2021/09/26 09:33:37;;;;;;;16.73;7.22;;;22.90;72.50;;;;;;5219081;28;20040;-45
2021/09/26 09:36:19;;;;;;;12.07;6.57;;;22.90;72.50;;;;;;5201389;28;20978;-54
2021/09/26 09:38:54;;;;;;;17.90;7.32;;;22.90;72.30;;;;;;5202674;28;20053;-45
2021/09/26 09:41:39;;;;;;;16.48;6.50;;;22.90;72.40;;;;;;5223307;28;20047;-51
2021/09/26 09:44:13;;;;;;;14.40;6.82;;;22.90;72.20;;;;;;5222667;28;20591;-50
2021/09/26 09:46:47;;;;;;;16.90;6.05;;;22.90;72.30;;;;;;5220480;28;20496;-49
2021/09/26 09:49:23;;;;;;;12.32;6.18;;;23.00;72.20;;;;;;5217193;28;20049;-46
2021/09/26 09:52:02;;;;;;;8.38;5.35;;;22.90;72.20;;;;;;5200965;28;20048;-50
2021/09/26 09:54:38;;;;;;;12.43;6.03;;;23.00;72.20;;;;;;5218031;28;20044;-50
2021/09/26 09:57:13;;;;;;;12.73;5.80;;;23.00;72.20;;;;;;5217929;28;20051;-50
2021/09/26 09:59:47;;;;;;;15.43;6.22;;;23.00;72.10;;;;;;5185518;28;20040;-49
2021/09/26 10:02:19;;;;;;;12.55;6.07;;;23.00;72.70;;;;;;5206583;28;20044;-45
2021/09/26 10:04:52;;;;;;;12.97;5.30;;;23.00;72.10;;;;;;5197184;28;20673;-48
2021/09/26 10:07:27;;;;;;;12.90;5.72;;;23.00;72.10;;;;;;5193776;28;20943;-51
2021/09/26 10:09:59;;;;;;;14.95;6.18;;;23.00;72.00;;;;;;5193121;28;20493;-45
2021/09/26 10:12:32;;;;;;;12.40;5.60;;;23.00;72.00;;;;;;5164190;28;20051;-49
2021/09/26 10:15:05;;;;;;;11.48;5.18;;;23.00;72.00;;;;;;5204318;28;20299;-45
2021/09/26 10:17:38;;;;;;;10.38;5.63;;;23.00;72.00;;;;;;5199560;28;20056;-52
2021/09/26 10:20:11;;;;;;;12.45;5.32;;;23.00;72.10;;;;;;5163277;28;20596;-47
2021/09/26 10:22:46;;;;;;;11.05;5.45;;;23.00;72.10;;;;;;5204128;28;20040;-50
2021/09/26 10:25:19;;;;;;;10.55;6.13;;;23.00;72.10;;;;;;5199013;28;20056;-46
2021/09/26 10:27:54;;;;;;;12.40;5.25;;;23.00;72.30;;;;;;5203373;28;20131;-45
2021/09/26 10:30:27;;;;;;;10.70;4.97;;;23.00;72.30;;;;;;5206290;28;20052;-47
2021/09/26 10:32:59;;;;;;;18.92;6.22;;;23.00;72.40;;;;;;5169448;28;20041;-50
2021/09/26 10:35:32;;;;;;;17.20;5.38;;;23.00;72.40;;;;;;5198392;28;20098;-46
2021/09/26 10:38:11;;;;;;;9.80;5.05;;;23.00;72.50;;;;;;5210051;28;20044;-49
2021/09/26 10:40:44;;;;;;;24.05;6.50;;;23.10;72.50;;;;;;5201633;28;20043;-45
2021/09/26 10:43:17;;;;;;;19.00;5.15;;;23.10;72.50;;;;;;5175953;28;20044;-45
2021/09/26 10:46:20;;;;;;;19.15;6.03;;;23.10;72.50;;;;;;5189912;28;20312;-51
2021/09/26 10:49:15;;;;;;;12.07;4.95;;;23.10;72.40;;;;;;5198075;28;20815;-47
2021/09/26 10:51:58;;;;;;;12.07;6.03;;;23.10;72.50;;;;;;5199297;28;20079;-48
2021/09/26 10:54:35;;;;;;;11.88;5.32;;;23.10;72.50;;;;;;5201941;28;20124;-45
2021/09/26 10:57:08;;;;;;;19.13;4.72;;;23.10;72.50;;;;;;5208630;28;20055;-51
2021/09/26 10:59:41;;;;;;;11.18;4.97;;;23.20;72.50;;;;;;5204529;28;20048;-49
2021/09/26 11:02:23;;;;;;;17.63;5.63;;;23.20;72.50;;;;;;5198319;28;20044;-50
2021/09/26 11:04:58;;;;;;;13.90;6.07;;;23.20;72.50;;;;;;5161097;28;20776;-47
2021/09/26 11:07:44;;;;;;;6.85;4.80;;;23.20;72.50;;;;;;5200511;28;20416;-50
2021/09/26 11:10:17;;;;;;;10.32;4.95;;;23.20;72.40;;;;;;5184873;28;20045;-46
2021/09/26 11:12:50;;;;;;;11.35;5.47;;;23.30;72.60;;;;;;5206011;28;20531;-48
2021/09/26 11:15:23;;;;;;;;;;;23.30;72.60;;;;;;5205109;28;20048;-49
2021/09/26 11:17:57;;;;;;;9.55;4.63;;;23.20;72.50;;;;;;5197508;28;19929;-46
2021/09/26 11:20:29;;;;;;;12.85;4.45;;;23.20;72.80;;;;;;5206557;28;20040;-53
2021/09/26 11:23:05;;;;;;;9.85;4.85;;;23.20;72.60;;;;;;5207082;28;20048;-45
2021/09/26 11:25:57;;;;;;;10.73;4.63;;;23.30;72.70;;;;;;5191853;28;20198;-50
2021/09/26 11:28:39;;;;;;;14.55;5.35;;;23.30;72.60;;;;;;5198750;28;20433;-47
2021/09/26 11:31:38;;;;;;;10.20;4.97;;;23.30;72.60;;;;;;5194003;28;20040;-48
2021/09/26 11:34:10;;;;;;;12.10;4.68;;;23.30;72.50;;;;;;5202304;28;20049;-44
2021/09/26 11:36:52;;;;;;;8.93;4.55;;;23.30;72.40;;;;;;5209741;28;20509;-49
2021/09/26 11:39:27;;;;;;;14.63;5.40;;;23.30;72.50;;;;;;5203388;28;20862;-48
2021/09/26 11:42:01;;;;;;;13.18;4.80;;;23.40;72.50;;;;;;5203893;28;21098;-46
2021/09/26 11:44:48;;;;;;;22.88;5.63;;;23.40;72.50;;;;;;5186141;28;20523;-46
2021/09/26 11:47:22;;;;;;;27.27;5.90;;;23.40;72.40;;;;;;5188237;28;20063;-50
2021/09/26 11:50:15;;;;;;;21.38;4.78;;;23.50;72.40;;;;;;5183994;28;20188;-47
2021/09/26 11:52:48;;;;;;;20.13;5.25;;;23.50;72.00;;;;;;5221794;28;20049;-46
2021/09/26 11:55:20;;;;;;;21.92;4.95;;;23.50;72.00;;;;;;5221134;28;20055;-46
2021/09/26 11:57:58;;;;;;;14.93;4.90;;;23.60;71.90;;;;;;5204279;28;20044;-45
2021/09/26 12:00:34;;;;;;;19.85;4.63;;;23.70;71.80;;;;;;5227503;28;20041;-47
2021/09/26 12:03:25;;;;;;;14.27;4.50;;;23.70;71.60;;;;;;5229301;28;20045;-46
2021/09/26 12:05:57;;;;;;;11.95;4.57;;;23.70;71.40;;;;;;5206894;28;20049;-46
2021/09/26 12:08:41;;;;;;;17.52;5.32;;;23.70;71.30;;;;;;5228269;28;20047;-50
2021/09/26 12:11:13;;;;;;;10.50;4.20;;;23.80;71.20;;;;;;5208611;28;20596;-44
2021/09/26 12:13:55;;;;;;;17.70;5.75;;;23.80;71.10;;;;;;5229822;28;20044;-46
2021/09/26 12:16:27;;;;;;;10.32;4.40;;;23.80;71.00;;;;;;5222120;28;20037;-47
2021/09/26 12:19:00;;;;;;;12.88;3.85;;;23.90;70.90;;;;;;5228089;28;20041;-47
2021/09/26 12:21:34;;;;;;;18.40;4.25;;;23.90;70.80;;;;;;5225097;28;20389;-47
2021/09/26 12:24:10;;;;;;;8.85;4.35;;;23.90;70.80;;;;;;5227163;28;20166;-47
2021/09/26 12:26:47;;;;;;;12.20;3.95;;;23.90;70.70;;;;;;5221761;28;20049;-49
2021/09/26 12:29:27;;;;;;;8.35;3.75;;;23.90;70.60;;;;;;5228978;28;20622;-46
2021/09/26 12:32:10;;;;;;;8.82;3.85;;;23.90;70.50;;;;;;5229926;28;20048;-47
2021/09/26 12:34:45;;;;;;;10.85;4.05;;;23.90;70.40;;;;;;5214644;28;20036;-49
2021/09/26 12:37:22;;;;;;;9.27;3.88;;;23.90;70.50;;;;;;5228190;28;20045;-46
2021/09/26 12:39:58;;;;;;;6.57;3.80;;;23.90;70.40;;;;;;5231832;28;20048;-50
2021/09/26 12:42:37;;;;;;;6.47;3.10;;;23.90;70.40;;;;;;5230454;28;20047;-50
2021/09/26 12:45:18;;;;;;;13.55;4.10;;;23.90;70.40;;;;;;5228200;28;20477;-49
2021/09/26 12:47:53;;;;;;;8.57;4.05;;;23.90;70.30;;;;;;5228535;28;20459;-48
2021/09/26 12:50:26;;;;;;;7.95;3.15;;;23.90;70.40;;;;;;5230197;28;20047;-46
2021/09/26 12:53:00;;;;;;;9.10;3.80;;;23.90;70.40;;;;;;5231461;28;20051;-48
2021/09/26 12:55:36;;;;;;;6.47;3.90;;;23.90;70.30;;;;;;5230202;28;20449;-46
2021/09/26 12:58:28;;;;;;;9.10;3.53;;;23.90;70.30;;;;;;5229391;28;20028;-47
2021/09/26 13:01:25;;;;;;;10.80;4.35;;;23.90;70.30;;;;;;5231334;28;20048;-51
2021/09/26 13:04:03;;;;;;;8.13;3.45;;;23.90;70.30;;;;;;5229230;28;20045;-52
2021/09/26 13:06:51;;;;;;;6.57;3.97;;;23.90;70.30;;;;;;5207348;28;20064;-48
2021/09/26 13:09:37;;;;;;;9.23;3.85;;;23.90;70.30;;;;;;5179372;28;20539;-48
2021/09/26 13:12:28;;;;;;;6.88;3.53;;;23.90;70.30;;;;;;5228649;28;20048;-46
2021/09/26 13:15:31;;;;;;;4.82;3.08;;;23.90;70.30;;;;;;5229990;28;20037;-49
2021/09/26 13:18:35;;;;;;;10.23;3.65;;;23.90;70.30;;;;;;5231364;28;20051;-47
2021/09/26 13:21:35;;;;;;;7.93;3.47;;;23.80;70.30;;;;;;5229310;28;20044;-47
2021/09/26 13:24:09;;;;;;;5.32;3.38;;;23.80;70.30;;;;;;5231069;28;20056;-45
2021/09/26 13:26:43;;;;;;;5.50;3.22;;;23.80;71.00;;;;;;5232131;28;20412;-50